createdAt,value
2019-02-23T15:01:10.883Z,17.30
2019-02-23T15:04:42.954Z,18.53
2019-02-23T15:07:45.401Z,14.57
2019-02-23T15:10:31.829Z,19.27
2019-02-23T15:13:39.675Z,13.70
2019-02-23T15:16:51.017Z,13.10
2019-02-23T15:19:52.319Z,10.10
2019-02-23T15:23:06.883Z,11.40
2019-02-23T15:26:39.285Z,12.43
2019-02-23T15:29:36.788Z,11.47
2019-02-23T15:32:24.192Z,14.30
2019-02-23T15:35:14.068Z,13.10
2019-02-23T15:38:11.992Z,12.53
2019-02-23T15:41:13.928Z,11.17
2019-02-23T15:44:48.599Z,14.47
2019-02-23T15:47:27.690Z,11.10
2019-02-23T15:49:58.781Z,13.40
2019-02-23T15:52:31.119Z,10.00
2019-02-23T15:55:02.484Z,10.60
2019-02-23T15:57:34.303Z,12.00
2019-02-23T16:00:05.689Z,13.93
2019-02-23T16:02:48.030Z,12.77
2019-02-23T16:05:19.443Z,10.17
2019-02-23T16:07:52.299Z,9.33
2019-02-23T16:10:24.141Z,10.67
2019-02-23T16:12:55.552Z,12.07
2019-02-23T16:15:26.673Z,11.00
2019-02-23T16:17:57.427Z,12.33
2019-02-23T16:20:28.365Z,11.40
2019-02-23T16:22:59.277Z,13.40
2019-02-23T16:25:38.086Z,14.70
2019-02-23T16:28:14.147Z,15.30
2019-02-23T16:30:48.948Z,18.90
2019-02-23T16:33:20.208Z,18.87
2019-02-23T16:35:51.811Z,20.60
2019-02-23T16:38:22.714Z,19.57
2019-02-23T16:40:53.759Z,22.00
2019-02-23T16:43:24.565Z,20.53
2019-02-23T16:45:55.598Z,26.57
2019-02-23T16:48:26.603Z,22.80
2019-02-23T16:50:59.183Z,19.67
2019-02-23T16:53:30.302Z,21.30
2019-02-23T16:56:03.024Z,23.50
2019-02-23T16:58:36.625Z,24.07
2019-02-23T17:01:07.584Z,24.50
2019-02-23T17:03:38.931Z,28.50
2019-02-23T17:06:09.966Z,28.37
2019-02-23T17:08:41.190Z,24.33
2019-02-23T17:11:12.846Z,23.20
2019-02-23T17:13:43.776Z,26.43
2019-02-23T17:16:14.718Z,25.67
2019-02-23T17:18:45.854Z,26.57
2019-02-23T17:21:16.742Z,36.30
2019-02-23T17:23:47.881Z,30.07
2019-02-23T17:26:18.926Z,28.40
2019-02-23T17:28:51.531Z,31.67
2019-02-23T17:31:22.735Z,32.13
2019-02-23T17:33:54.134Z,29.70
2019-02-23T17:36:25.856Z,33.97
2019-02-23T17:38:59.144Z,28.57
2019-02-23T17:41:30.251Z,31.27
2019-02-23T17:44:01.300Z,23.67
2019-02-23T17:46:32.752Z,29.47
2019-02-23T17:49:03.825Z,27.50
2019-02-23T17:51:34.632Z,24.60
2019-02-23T17:54:05.534Z,31.70
2019-02-23T17:56:36.494Z,28.60
2019-02-23T17:59:07.356Z,30.53
2019-02-23T18:01:38.117Z,30.33
2019-02-23T18:04:09.226Z,29.63
2019-02-23T18:06:39.955Z,31.43
2019-02-23T18:09:10.696Z,24.70
2019-02-23T18:11:41.786Z,32.70
2019-02-23T18:14:12.933Z,30.93
2019-02-23T18:16:43.927Z,30.40
2019-02-23T18:19:15.039Z,28.97
2019-02-23T18:21:45.757Z,32.27
2019-02-23T18:24:16.710Z,29.43
2019-02-23T18:26:47.590Z,28.77
2019-02-23T18:29:19.080Z,34.90
2019-02-23T18:31:52.314Z,26.07
2019-02-23T18:34:23.480Z,29.50
2019-02-23T18:36:54.214Z,29.63
2019-02-23T18:39:26.690Z,26.60
2019-02-23T18:41:57.830Z,36.10
2019-02-23T18:44:28.831Z,27.20
2019-02-23T18:47:01.237Z,26.27
2019-02-23T18:49:32.697Z,24.53
2019-02-23T18:52:03.737Z,25.63
2019-02-23T18:54:34.912Z,31.57
2019-02-23T18:57:05.981Z,30.43
2019-02-23T18:59:37.300Z,28.53
2019-02-23T19:02:10.249Z,25.63
2019-02-23T19:04:41.590Z,24.23
2019-02-23T19:07:12.573Z,24.93
2019-02-23T19:09:53.918Z,24.43
2019-02-23T19:12:25.242Z,29.00
2019-02-23T19:14:56.618Z,29.07
2019-02-23T19:17:27.484Z,27.00
2019-02-23T19:19:58.406Z,28.60
2019-02-23T19:22:29.320Z,30.03
2019-02-23T19:25:00.286Z,28.50
2019-02-23T19:27:31.219Z,25.80
2019-02-23T19:30:02.516Z,30.93
2019-02-23T19:32:33.256Z,26.50
2019-02-23T19:35:05.100Z,26.70
2019-02-23T19:37:35.953Z,24.13
2019-02-23T19:40:10.008Z,27.17
2019-02-23T19:42:40.801Z,26.80
2019-02-23T19:45:11.836Z,32.97
2019-02-23T19:47:42.827Z,30.53
2019-02-23T19:50:20.579Z,31.20
2019-02-23T19:52:55.995Z,32.33
2019-02-23T19:55:28.508Z,28.37
2019-02-23T19:58:00.509Z,31.73
2019-02-23T20:00:31.514Z,23.80
2019-02-23T20:03:04.811Z,28.30
2019-02-23T20:05:35.527Z,30.80
2019-02-23T20:08:06.499Z,32.30
2019-02-23T20:10:37.353Z,29.80
2019-02-23T20:13:08.558Z,29.03
2019-02-23T20:15:39.857Z,30.43
2019-02-23T20:18:11.063Z,26.20
2019-02-23T20:20:41.947Z,32.93
2019-02-23T20:23:12.780Z,30.00
2019-02-23T20:25:46.546Z,31.10
2019-02-23T20:28:17.345Z,28.47
2019-02-23T20:30:48.237Z,29.73
2019-02-23T20:33:19.155Z,30.17
2019-02-23T20:35:54.033Z,29.10
2019-02-23T20:38:27.889Z,32.77
2019-02-23T20:41:00.111Z,36.67
2019-02-23T20:43:31.091Z,31.13
2019-02-23T20:46:02.460Z,28.03
2019-02-23T20:48:33.679Z,34.57
2019-02-23T20:51:04.816Z,29.80
2019-02-23T20:53:56.688Z,34.07
2019-02-23T20:56:31.871Z,32.90
2019-02-23T20:59:18.386Z,32.90
2019-02-23T21:05:17.457Z,32.30
2019-02-23T21:08:06.804Z,30.47
2019-02-23T21:10:49.385Z,35.73
2019-02-23T21:14:14.112Z,34.90
2019-02-23T21:16:47.376Z,31.07
2019-02-23T21:19:46.373Z,30.70
2019-02-23T21:22:42.498Z,35.53
2019-02-23T21:28:14.338Z,29.83
2019-02-23T21:31:15.025Z,32.57
2019-02-23T21:33:51.285Z,34.07
2019-02-23T21:36:39.540Z,31.60
2019-02-23T21:39:24.595Z,35.00
2019-02-23T21:42:17.760Z,29.23
2019-02-23T21:45:18.087Z,29.97
2019-02-23T21:48:14.210Z,33.43
2019-02-23T21:50:44.953Z,34.93
2019-02-23T21:53:23.307Z,30.40
2019-02-23T21:56:22.475Z,35.33
2019-02-23T21:59:17.429Z,37.20
2019-02-23T22:02:15.226Z,31.30
2019-02-23T22:04:49.676Z,31.93
2019-02-23T22:07:47.838Z,36.53
2019-02-23T22:10:53.297Z,34.33
2019-02-23T22:17:21.585Z,34.80
2019-02-23T22:20:26.531Z,37.57
2019-02-23T22:23:20.275Z,27.33
2019-02-23T22:26:16.521Z,27.20
2019-02-23T22:29:51.273Z,35.50
2019-02-23T22:32:37.685Z,31.03
2019-02-23T22:35:41.575Z,35.90
2019-02-23T22:38:17.203Z,33.47
2019-02-23T22:40:49.855Z,29.47
2019-02-23T22:43:20.386Z,33.43
2019-02-23T22:45:57.990Z,35.63
2019-02-23T22:48:28.914Z,32.00
2019-02-23T22:51:08.064Z,30.37
2019-02-23T22:53:38.662Z,33.50
2019-02-23T22:56:11.473Z,29.23
2019-02-23T22:58:43.959Z,41.67
2019-02-23T23:01:16.440Z,31.87
2019-02-23T23:03:47.120Z,39.30
2019-02-23T23:06:17.705Z,37.53
2019-02-23T23:08:51.369Z,36.43
2019-02-23T23:11:22.149Z,31.10
2019-02-23T23:13:52.820Z,33.83
2019-02-23T23:16:29.033Z,31.20
2019-02-23T23:18:59.654Z,30.87
2019-02-23T23:21:30.399Z,35.87
2019-02-23T23:24:01.382Z,34.90
2019-02-23T23:26:35.802Z,34.43
2019-02-23T23:29:06.386Z,30.10
2019-02-23T23:31:39.779Z,34.83
2019-02-23T23:34:10.443Z,32.33
2019-02-23T23:36:42.614Z,31.50
2019-02-23T23:39:13.211Z,32.87
2019-02-23T23:41:44.052Z,29.77
2019-02-23T23:44:14.583Z,29.87
2019-02-23T23:46:45.178Z,31.73
2019-02-23T23:49:15.734Z,33.10
2019-02-23T23:51:46.395Z,32.13
2019-02-23T23:54:17.307Z,34.90
2019-02-23T23:56:48.015Z,29.87
2019-02-23T23:59:18.840Z,30.27
